sensor_id;sensor_type;location;lat;lon;timestamp;P1;durP1;ratioP1;P2;durP2;ratioP2
49488;SDS011;35382;51.484;11.476;2023-05-07T00:01:31;18.50;;;12.73;;
49488;SDS011;35382;51.484;11.476;2023-05-07T00:03:12;19.02;;;13.00;;
49488;SDS011;35382;51.484;11.476;2023-05-07T00:04:54;19.30;;;12.93;;
49488;SDS011;35382;51.484;11.476;2023-05-07T00:06:35;18.90;;;13.25;;
49488;SDS011;35382;51.484;11.476;2023-05-07T00:08:16;17.27;;;12.80;;
49488;SDS011;35382;51.484;11.476;2023-05-07T00:09:57;17.10;;;12.93;;
49488;SDS011;35382;51.484;11.476;2023-05-07T00:11:38;17.08;;;12.45;;
49488;SDS011;35382;51.484;11.476;2023-05-07T00:13:19;18.70;;;13.57;;
49488;SDS011;35382;51.484;11.476;2023-05-07T00:15:02;16.60;;;11.85;;
49488;SDS011;35382;51.484;11.476;2023-05-07T00:16:44;16.70;;;12.60;;
49488;SDS011;35382;51.484;11.476;2023-05-07T00:18:25;18.27;;;13.77;;
49488;SDS011;35382;51.484;11.476;2023-05-07T00:20:06;18.65;;;13.35;;
49488;SDS011;35382;51.484;11.476;2023-05-07T00:21:47;19.60;;;13.65;;
49488;SDS011;35382;51.484;11.476;2023-05-07T00:23:28;18.35;;;13.07;;
49488;SDS011;35382;51.484;11.476;2023-05-07T00:25:09;19.92;;;14.45;;
49488;SDS011;35382;51.484;11.476;2023-05-07T00:26:50;19.95;;;14.27;;
49488;SDS011;35382;51.484;11.476;2023-05-07T00:28:33;18.88;;;13.65;;
49488;SDS011;35382;51.484;11.476;2023-05-07T00:30:14;18.83;;;13.48;;
49488;SDS011;35382;51.484;11.476;2023-05-07T00:31:55;22.40;;;14.75;;
49488;SDS011;35382;51.484;11.476;2023-05-07T00:33:36;18.50;;;13.00;;
49488;SDS011;35382;51.484;11.476;2023-05-07T00:35:17;18.92;;;13.55;;
49488;SDS011;35382;51.484;11.476;2023-05-07T00:36:57;19.45;;;13.95;;
49488;SDS011;35382;51.484;11.476;2023-05-07T00:38:38;19.75;;;14.32;;
49488;SDS011;35382;51.484;11.476;2023-05-07T00:40:20;19.95;;;14.45;;
49488;SDS011;35382;51.484;11.476;2023-05-07T00:42:01;20.38;;;14.75;;
49488;SDS011;35382;51.484;11.476;2023-05-07T00:43:43;22.10;;;16.05;;
49488;SDS011;35382;51.484;11.476;2023-05-07T00:45:27;23.02;;;16.40;;
49488;SDS011;35382;51.484;11.476;2023-05-07T00:47:08;22.40;;;16.83;;
49488;SDS011;35382;51.484;11.476;2023-05-07T00:48:50;23.30;;;16.90;;
49488;SDS011;35382;51.484;11.476;2023-05-07T00:50:31;23.20;;;16.63;;
49488;SDS011;35382;51.484;11.476;2023-05-07T00:52:13;22.63;;;16.40;;
49488;SDS011;35382;51.484;11.476;2023-05-07T00:53:56;21.75;;;15.73;;
49488;SDS011;35382;51.484;11.476;2023-05-07T00:55:37;22.38;;;16.13;;
49488;SDS011;35382;51.484;11.476;2023-05-07T00:57:18;27.25;;;18.42;;
49488;SDS011;35382;51.484;11.476;2023-05-07T00:59:01;24.63;;;17.38;;
49488;SDS011;35382;51.484;11.476;2023-05-07T01:00:43;23.52;;;15.85;;
49488;SDS011;35382;51.484;11.476;2023-05-07T01:02:24;26.85;;;17.88;;
49488;SDS011;35382;51.484;11.476;2023-05-07T01:04:05;24.00;;;17.30;;
49488;SDS011;35382;51.484;11.476;2023-05-07T01:05:46;23.63;;;15.07;;
49488;SDS011;35382;51.484;11.476;2023-05-07T01:07:29;23.52;;;16.48;;
49488;SDS011;35382;51.484;11.476;2023-05-07T01:09:11;21.40;;;15.98;;
49488;SDS011;35382;51.484;11.476;2023-05-07T01:10:52;21.83;;;16.08;;
49488;SDS011;35382;51.484;11.476;2023-05-07T01:12:34;22.08;;;15.85;;
49488;SDS011;35382;51.484;11.476;2023-05-07T01:14:17;21.02;;;15.70;;
49488;SDS011;35382;51.484;11.476;2023-05-07T01:15:59;20.90;;;14.90;;
49488;SDS011;35382;51.484;11.476;2023-05-07T01:17:41;19.33;;;14.48;;
49488;SDS011;35382;51.484;11.476;2023-05-07T01:19:28;20.70;;;15.80;;
49488;SDS011;35382;51.484;11.476;2023-05-07T01:21:11;21.27;;;14.27;;
49488;SDS011;35382;51.484;11.476;2023-05-07T01:22:53;20.17;;;14.20;;
49488;SDS011;35382;51.484;11.476;2023-05-07T01:24:34;20.65;;;14.60;;
49488;SDS011;35382;51.484;11.476;2023-05-07T01:26:17;19.40;;;13.85;;
49488;SDS011;35382;51.484;11.476;2023-05-07T01:28:00;17.67;;;13.57;;
49488;SDS011;35382;51.484;11.476;2023-05-07T01:29:44;20.80;;;13.63;;
49488;SDS011;35382;51.484;11.476;2023-05-07T01:31:25;21.52;;;15.80;;
49488;SDS011;35382;51.484;11.476;2023-05-07T01:33:08;20.35;;;14.48;;
49488;SDS011;35382;51.484;11.476;2023-05-07T01:34:51;20.35;;;14.45;;
49488;SDS011;35382;51.484;11.476;2023-05-07T01:36:34;20.55;;;14.25;;
49488;SDS011;35382;51.484;11.476;2023-05-07T01:38:19;20.95;;;13.98;;
49488;SDS011;35382;51.484;11.476;2023-05-07T01:40:02;22.10;;;15.40;;
49488;SDS011;35382;51.484;11.476;2023-05-07T01:41:43;22.83;;;14.82;;
49488;SDS011;35382;51.484;11.476;2023-05-07T01:43:26;21.77;;;14.55;;
49488;SDS011;35382;51.484;11.476;2023-05-07T01:45:07;20.83;;;14.43;;
49488;SDS011;35382;51.484;11.476;2023-05-07T01:46:48;22.27;;;13.25;;
49488;SDS011;35382;51.484;11.476;2023-05-07T01:48:29;21.60;;;14.32;;
49488;SDS011;35382;51.484;11.476;2023-05-07T01:50:11;22.50;;;14.60;;
49488;SDS011;35382;51.484;11.476;2023-05-07T01:51:52;18.73;;;13.02;;
49488;SDS011;35382;51.484;11.476;2023-05-07T01:53:36;21.13;;;14.13;;
49488;SDS011;35382;51.484;11.476;2023-05-07T01:55:19;20.27;;;13.68;;
49488;SDS011;35382;51.484;11.476;2023-05-07T01:57:00;26.05;;;14.85;;
49488;SDS011;35382;51.484;11.476;2023-05-07T01:58:41;23.60;;;14.20;;
49488;SDS011;35382;51.484;11.476;2023-05-07T02:00:22;21.67;;;14.32;;
49488;SDS011;35382;51.484;11.476;2023-05-07T02:02:03;22.52;;;14.30;;
49488;SDS011;35382;51.484;11.476;2023-05-07T02:03:46;23.35;;;14.82;;
49488;SDS011;35382;51.484;11.476;2023-05-07T02:07:21;21.02;;;13.68;;
49488;SDS011;35382;51.484;11.476;2023-05-07T02:09:02;22.85;;;14.20;;
49488;SDS011;35382;51.484;11.476;2023-05-07T02:10:43;19.92;;;12.95;;
49488;SDS011;35382;51.484;11.476;2023-05-07T02:12:24;21.10;;;13.63;;
49488;SDS011;35382;51.484;11.476;2023-05-07T02:14:05;22.70;;;13.85;;
49488;SDS011;35382;51.484;11.476;2023-05-07T02:15:46;22.00;;;13.77;;
49488;SDS011;35382;51.484;11.476;2023-05-07T02:17:31;20.92;;;14.20;;
49488;SDS011;35382;51.484;11.476;2023-05-07T02:19:13;21.27;;;12.95;;
49488;SDS011;35382;51.484;11.476;2023-05-07T02:20:54;22.40;;;14.73;;
49488;SDS011;35382;51.484;11.476;2023-05-07T02:22:35;21.73;;;13.98;;
49488;SDS011;35382;51.484;11.476;2023-05-07T02:24:16;22.35;;;14.95;;
49488;SDS011;35382;51.484;11.476;2023-05-07T02:25:57;20.05;;;13.27;;
49488;SDS011;35382;51.484;11.476;2023-05-07T02:27:38;20.95;;;13.88;;
49488;SDS011;35382;51.484;11.476;2023-05-07T02:29:19;22.10;;;14.18;;
49488;SDS011;35382;51.484;11.476;2023-05-07T02:31:01;20.38;;;14.18;;
49488;SDS011;35382;51.484;11.476;2023-05-07T02:32:44;21.27;;;13.82;;
49488;SDS011;35382;51.484;11.476;2023-05-07T02:34:25;22.45;;;13.98;;
49488;SDS011;35382;51.484;11.476;2023-05-07T02:36:06;21.33;;;14.55;;
49488;SDS011;35382;51.484;11.476;2023-05-07T02:37:50;22.42;;;15.70;;
49488;SDS011;35382;51.484;11.476;2023-05-07T02:39:31;19.88;;;13.77;;
49488;SDS011;35382;51.484;11.476;2023-05-07T02:41:12;21.00;;;14.48;;
49488;SDS011;35382;51.484;11.476;2023-05-07T02:42:53;19.38;;;13.55;;
49488;SDS011;35382;51.484;11.476;2023-05-07T02:44:34;21.27;;;14.25;;
49488;SDS011;35382;51.484;11.476;2023-05-07T02:46:16;20.98;;;14.20;;
49488;SDS011;35382;51.484;11.476;2023-05-07T02:48:01;22.05;;;14.02;;
49488;SDS011;35382;51.484;11.476;2023-05-07T02:49:42;20.92;;;14.13;;
49488;SDS011;35382;51.484;11.476;2023-05-07T02:51:23;21.35;;;14.93;;
49488;SDS011;35382;51.484;11.476;2023-05-07T02:53:05;21.55;;;14.52;;
49488;SDS011;35382;51.484;11.476;2023-05-07T02:54:46;22.45;;;15.57;;
49488;SDS011;35382;51.484;11.476;2023-05-07T02:56:27;20.10;;;13.10;;
49488;SDS011;35382;51.484;11.476;2023-05-07T02:58:08;21.00;;;14.40;;
49488;SDS011;35382;51.484;11.476;2023-05-07T02:59:51;20.23;;;13.68;;
49488;SDS011;35382;51.484;11.476;2023-05-07T03:01:34;22.23;;;14.32;;
49488;SDS011;35382;51.484;11.476;2023-05-07T03:03:22;20.67;;;13.75;;
49488;SDS011;35382;51.484;11.476;2023-05-07T03:05:04;21.85;;;14.65;;
49488;SDS011;35382;51.484;11.476;2023-05-07T03:06:45;21.50;;;15.13;;
49488;SDS011;35382;51.484;11.476;2023-05-07T03:08:26;23.10;;;15.38;;
49488;SDS011;35382;51.484;11.476;2023-05-07T03:10:07;21.67;;;15.55;;
49488;SDS011;35382;51.484;11.476;2023-05-07T03:11:49;23.90;;;15.65;;
49488;SDS011;35382;51.484;11.476;2023-05-07T03:13:29;23.20;;;15.95;;
49488;SDS011;35382;51.484;11.476;2023-05-07T03:15:11;22.52;;;16.05;;
49488;SDS011;35382;51.484;11.476;2023-05-07T03:16:53;24.60;;;15.98;;
49488;SDS011;35382;51.484;11.476;2023-05-07T03:18:34;22.38;;;14.70;;
49488;SDS011;35382;51.484;11.476;2023-05-07T03:20:15;22.00;;;15.25;;
49488;SDS011;35382;51.484;11.476;2023-05-07T03:21:56;23.27;;;15.38;;
49488;SDS011;35382;51.484;11.476;2023-05-07T03:23:37;23.70;;;16.48;;
49488;SDS011;35382;51.484;11.476;2023-05-07T03:25:18;24.98;;;17.00;;
49488;SDS011;35382;51.484;11.476;2023-05-07T03:26:59;22.55;;;15.20;;
49488;SDS011;35382;51.484;11.476;2023-05-07T03:28:42;22.55;;;16.13;;
49488;SDS011;35382;51.484;11.476;2023-05-07T03:30:26;21.77;;;15.18;;
49488;SDS011;35382;51.484;11.476;2023-05-07T03:32:07;22.45;;;15.82;;
49488;SDS011;35382;51.484;11.476;2023-05-07T03:33:56;23.75;;;15.45;;
49488;SDS011;35382;51.484;11.476;2023-05-07T03:35:38;22.25;;;15.85;;
49488;SDS011;35382;51.484;11.476;2023-05-07T03:37:22;19.33;;;14.15;;
49488;SDS011;35382;51.484;11.476;2023-05-07T03:39:03;20.38;;;14.35;;
49488;SDS011;35382;51.484;11.476;2023-05-07T03:40:52;19.73;;;14.70;;
49488;SDS011;35382;51.484;11.476;2023-05-07T03:42:33;20.05;;;14.10;;
49488;SDS011;35382;51.484;11.476;2023-05-07T03:44:14;23.13;;;14.70;;
49488;SDS011;35382;51.484;11.476;2023-05-07T03:45:55;18.70;;;13.90;;
49488;SDS011;35382;51.484;11.476;2023-05-07T03:47:39;19.83;;;14.48;;
49488;SDS011;35382;51.484;11.476;2023-05-07T03:49:23;20.33;;;14.35;;
49488;SDS011;35382;51.484;11.476;2023-05-07T03:51:04;20.45;;;13.95;;
49488;SDS011;35382;51.484;11.476;2023-05-07T03:52:47;21.30;;;13.40;;
49488;SDS011;35382;51.484;11.476;2023-05-07T03:54:30;19.73;;;14.23;;
49488;SDS011;35382;51.484;11.476;2023-05-07T03:56:11;19.67;;;13.80;;
49488;SDS011;35382;51.484;11.476;2023-05-07T03:57:54;18.95;;;13.48;;
49488;SDS011;35382;51.484;11.476;2023-05-07T03:59:35;21.02;;;14.52;;
49488;SDS011;35382;51.484;11.476;2023-05-07T04:01:16;18.58;;;14.32;;
49488;SDS011;35382;51.484;11.476;2023-05-07T04:02:58;19.17;;;13.80;;
49488;SDS011;35382;51.484;11.476;2023-05-07T04:04:41;18.77;;;13.32;;
49488;SDS011;35382;51.484;11.476;2023-05-07T04:06:23;19.63;;;13.55;;
49488;SDS011;35382;51.484;11.476;2023-05-07T04:08:04;21.05;;;14.10;;
49488;SDS011;35382;51.484;11.476;2023-05-07T04:09:59;19.30;;;12.98;;
49488;SDS011;35382;51.484;11.476;2023-05-07T04:11:40;21.52;;;13.30;;
49488;SDS011;35382;51.484;11.476;2023-05-07T04:13:23;18.08;;;12.32;;
49488;SDS011;35382;51.484;11.476;2023-05-07T04:15:05;19.02;;;13.20;;
49488;SDS011;35382;51.484;11.476;2023-05-07T04:16:47;18.60;;;13.13;;
49488;SDS011;35382;51.484;11.476;2023-05-07T04:18:28;18.25;;;12.32;;
49488;SDS011;35382;51.484;11.476;2023-05-07T04:20:10;19.40;;;13.18;;
49488;SDS011;35382;51.484;11.476;2023-05-07T04:21:53;20.25;;;13.60;;
49488;SDS011;35382;51.484;11.476;2023-05-07T04:23:34;19.20;;;13.32;;
49488;SDS011;35382;51.484;11.476;2023-05-07T04:25:18;18.80;;;13.05;;
49488;SDS011;35382;51.484;11.476;2023-05-07T04:26:59;16.23;;;12.23;;
49488;SDS011;35382;51.484;11.476;2023-05-07T04:28:41;17.48;;;12.80;;
49488;SDS011;35382;51.484;11.476;2023-05-07T04:30:22;16.65;;;12.23;;
49488;SDS011;35382;51.484;11.476;2023-05-07T04:32:03;17.02;;;12.30;;
49488;SDS011;35382;51.484;11.476;2023-05-07T04:33:44;18.17;;;12.82;;
49488;SDS011;35382;51.484;11.476;2023-05-07T04:35:28;19.55;;;12.93;;
49488;SDS011;35382;51.484;11.476;2023-05-07T04:37:09;20.75;;;13.75;;
49488;SDS011;35382;51.484;11.476;2023-05-07T04:38:50;18.75;;;14.10;;
49488;SDS011;35382;51.484;11.476;2023-05-07T04:40:32;20.08;;;14.60;;
49488;SDS011;35382;51.484;11.476;2023-05-07T04:42:15;17.83;;;12.80;;
49488;SDS011;35382;51.484;11.476;2023-05-07T04:43:57;18.00;;;13.43;;
49488;SDS011;35382;51.484;11.476;2023-05-07T04:45:40;18.60;;;13.48;;
49488;SDS011;35382;51.484;11.476;2023-05-07T04:47:22;17.83;;;12.93;;
49488;SDS011;35382;51.484;11.476;2023-05-07T04:49:03;17.55;;;12.73;;
49488;SDS011;35382;51.484;11.476;2023-05-07T04:50:44;19.27;;;13.63;;
49488;SDS011;35382;51.484;11.476;2023-05-07T04:52:28;19.00;;;13.70;;
49488;SDS011;35382;51.484;11.476;2023-05-07T04:54:09;19.58;;;13.88;;
49488;SDS011;35382;51.484;11.476;2023-05-07T04:55:55;19.33;;;14.25;;
49488;SDS011;35382;51.484;11.476;2023-05-07T04:57:41;21.42;;;14.40;;
49488;SDS011;35382;51.484;11.476;2023-05-07T04:59:23;20.50;;;14.85;;
49488;SDS011;35382;51.484;11.476;2023-05-07T05:01:05;20.60;;;15.43;;
49488;SDS011;35382;51.484;11.476;2023-05-07T05:02:46;20.77;;;15.77;;
49488;SDS011;35382;51.484;11.476;2023-05-07T05:04:31;21.25;;;15.82;;
49488;SDS011;35382;51.484;11.476;2023-05-07T05:06:12;21.52;;;14.98;;
49488;SDS011;35382;51.484;11.476;2023-05-07T05:07:54;23.67;;;15.65;;
49488;SDS011;35382;51.484;11.476;2023-05-07T05:09:35;22.23;;;16.33;;
49488;SDS011;35382;51.484;11.476;2023-05-07T05:11:16;21.92;;;15.95;;
49488;SDS011;35382;51.484;11.476;2023-05-07T05:12:57;24.08;;;16.75;;
49488;SDS011;35382;51.484;11.476;2023-05-07T05:14:39;23.83;;;16.92;;
49488;SDS011;35382;51.484;11.476;2023-05-07T05:16:22;21.73;;;16.35;;
49488;SDS011;35382;51.484;11.476;2023-05-07T05:18:03;22.55;;;16.58;;
49488;SDS011;35382;51.484;11.476;2023-05-07T05:19:45;22.23;;;17.35;;
49488;SDS011;35382;51.484;11.476;2023-05-07T05:21:26;23.48;;;17.42;;
49488;SDS011;35382;51.484;11.476;2023-05-07T05:23:12;23.25;;;17.17;;
49488;SDS011;35382;51.484;11.476;2023-05-07T05:24:53;23.00;;;16.55;;
49488;SDS011;35382;51.484;11.476;2023-05-07T05:26:36;23.75;;;16.52;;
49488;SDS011;35382;51.484;11.476;2023-05-07T05:28:17;24.00;;;16.52;;
49488;SDS011;35382;51.484;11.476;2023-05-07T05:29:58;22.40;;;16.42;;
49488;SDS011;35382;51.484;11.476;2023-05-07T05:31:39;22.15;;;16.75;;
49488;SDS011;35382;51.484;11.476;2023-05-07T05:33:22;23.90;;;16.25;;
49488;SDS011;35382;51.484;11.476;2023-05-07T05:35:05;21.17;;;16.30;;
49488;SDS011;35382;51.484;11.476;2023-05-07T05:36:48;22.27;;;16.45;;
49488;SDS011;35382;51.484;11.476;2023-05-07T05:38:30;21.63;;;16.42;;
49488;SDS011;35382;51.484;11.476;2023-05-07T05:40:11;22.05;;;15.80;;
49488;SDS011;35382;51.484;11.476;2023-05-07T05:41:52;21.85;;;16.23;;
49488;SDS011;35382;51.484;11.476;2023-05-07T05:43:34;21.35;;;15.63;;
49488;SDS011;35382;51.484;11.476;2023-05-07T05:45:15;22.27;;;16.15;;
49488;SDS011;35382;51.484;11.476;2023-05-07T05:46:58;20.98;;;15.95;;
49488;SDS011;35382;51.484;11.476;2023-05-07T05:48:40;21.95;;;16.52;;
49488;SDS011;35382;51.484;11.476;2023-05-07T05:50:25;22.73;;;16.20;;
49488;SDS011;35382;51.484;11.476;2023-05-07T05:52:06;21.58;;;15.98;;
49488;SDS011;35382;51.484;11.476;2023-05-07T05:53:48;23.55;;;16.60;;
49488;SDS011;35382;51.484;11.476;2023-05-07T05:55:29;22.65;;;16.55;;
49488;SDS011;35382;51.484;11.476;2023-05-07T05:57:14;22.63;;;16.35;;
49488;SDS011;35382;51.484;11.476;2023-05-07T05:58:55;22.67;;;16.85;;
49488;SDS011;35382;51.484;11.476;2023-05-07T06:00:36;22.58;;;17.27;;
49488;SDS011;35382;51.484;11.476;2023-05-07T06:02:20;23.13;;;16.77;;
49488;SDS011;35382;51.484;11.476;2023-05-07T06:04:01;23.17;;;16.02;;
49488;SDS011;35382;51.484;11.476;2023-05-07T06:05:42;22.75;;;16.83;;
49488;SDS011;35382;51.484;11.476;2023-05-07T06:07:23;22.80;;;16.13;;
49488;SDS011;35382;51.484;11.476;2023-05-07T06:09:05;22.70;;;16.30;;
49488;SDS011;35382;51.484;11.476;2023-05-07T06:10:55;22.40;;;16.27;;
49488;SDS011;35382;51.484;11.476;2023-05-07T06:12:36;22.38;;;16.60;;
49488;SDS011;35382;51.484;11.476;2023-05-07T06:14:17;21.73;;;16.55;;
49488;SDS011;35382;51.484;11.476;2023-05-07T06:15:58;22.75;;;16.42;;
49488;SDS011;35382;51.484;11.476;2023-05-07T06:17:39;21.38;;;16.23;;
49488;SDS011;35382;51.484;11.476;2023-05-07T06:19:21;21.90;;;16.63;;
49488;SDS011;35382;51.484;11.476;2023-05-07T06:21:05;21.17;;;15.40;;
49488;SDS011;35382;51.484;11.476;2023-05-07T06:22:48;23.08;;;17.02;;
49488;SDS011;35382;51.484;11.476;2023-05-07T06:24:30;29.48;;;18.25;;
49488;SDS011;35382;51.484;11.476;2023-05-07T06:26:11;21.42;;;15.93;;
49488;SDS011;35382;51.484;11.476;2023-05-07T06:27:56;23.25;;;16.90;;
49488;SDS011;35382;51.484;11.476;2023-05-07T06:29:39;24.23;;;17.30;;
49488;SDS011;35382;51.484;11.476;2023-05-07T06:31:29;22.10;;;16.20;;
49488;SDS011;35382;51.484;11.476;2023-05-07T06:33:16;22.95;;;15.82;;
49488;SDS011;35382;51.484;11.476;2023-05-07T06:34:57;21.52;;;15.77;;
49488;SDS011;35382;51.484;11.476;2023-05-07T06:36:38;23.90;;;16.83;;
49488;SDS011;35382;51.484;11.476;2023-05-07T06:38:28;22.63;;;17.15;;
49488;SDS011;35382;51.484;11.476;2023-05-07T06:40:09;22.92;;;16.38;;
49488;SDS011;35382;51.484;11.476;2023-05-07T06:41:53;24.13;;;17.40;;
49488;SDS011;35382;51.484;11.476;2023-05-07T06:43:45;24.05;;;16.73;;
49488;SDS011;35382;51.484;11.476;2023-05-07T06:45:39;20.58;;;16.17;;
49488;SDS011;35382;51.484;11.476;2023-05-07T06:47:22;22.08;;;16.83;;
49488;SDS011;35382;51.484;11.476;2023-05-07T06:49:07;23.88;;;17.15;;
49488;SDS011;35382;51.484;11.476;2023-05-07T06:50:48;23.55;;;16.75;;
49488;SDS011;35382;51.484;11.476;2023-05-07T06:52:29;22.23;;;16.90;;
49488;SDS011;35382;51.484;11.476;2023-05-07T06:54:10;19.17;;;14.73;;
49488;SDS011;35382;51.484;11.476;2023-05-07T06:55:54;23.02;;;15.88;;
49488;SDS011;35382;51.484;11.476;2023-05-07T06:57:35;21.92;;;16.52;;
49488;SDS011;35382;51.484;11.476;2023-05-07T06:59:16;20.92;;;15.70;;
49488;SDS011;35382;51.484;11.476;2023-05-07T07:00:58;20.45;;;15.18;;
49488;SDS011;35382;51.484;11.476;2023-05-07T07:02:39;21.15;;;15.30;;
49488;SDS011;35382;51.484;11.476;2023-05-07T07:04:20;22.23;;;16.33;;
49488;SDS011;35382;51.484;11.476;2023-05-07T07:06:12;20.40;;;14.93;;
49488;SDS011;35382;51.484;11.476;2023-05-07T07:07:55;19.20;;;14.80;;
49488;SDS011;35382;51.484;11.476;2023-05-07T07:09:36;20.77;;;14.63;;
49488;SDS011;35382;51.484;11.476;2023-05-07T07:11:19;22.63;;;15.50;;
49488;SDS011;35382;51.484;11.476;2023-05-07T07:13:02;19.85;;;15.05;;
49488;SDS011;35382;51.484;11.476;2023-05-07T07:14:44;20.00;;;14.80;;
49488;SDS011;35382;51.484;11.476;2023-05-07T07:16:26;21.23;;;15.98;;
49488;SDS011;35382;51.484;11.476;2023-05-07T07:18:07;21.77;;;16.65;;
49488;SDS011;35382;51.484;11.476;2023-05-07T07:19:48;18.02;;;13.73;;
49488;SDS011;35382;51.484;11.476;2023-05-07T07:21:29;18.05;;;14.15;;
49488;SDS011;35382;51.484;11.476;2023-05-07T07:23:12;19.58;;;15.00;;
49488;SDS011;35382;51.484;11.476;2023-05-07T07:24:53;19.73;;;14.38;;
49488;SDS011;35382;51.484;11.476;2023-05-07T07:26:34;20.10;;;14.80;;
49488;SDS011;35382;51.484;11.476;2023-05-07T07:28:20;19.27;;;14.77;;
49488;SDS011;35382;51.484;11.476;2023-05-07T07:30:04;19.65;;;15.52;;
49488;SDS011;35382;51.484;11.476;2023-05-07T07:31:48;19.63;;;15.23;;
49488;SDS011;35382;51.484;11.476;2023-05-07T07:33:31;20.15;;;15.18;;
49488;SDS011;35382;51.484;11.476;2023-05-07T07:35:11;24.45;;;17.33;;
49488;SDS011;35382;51.484;11.476;2023-05-07T07:36:54;21.92;;;15.98;;
49488;SDS011;35382;51.484;11.476;2023-05-07T07:38:35;21.38;;;16.45;;
49488;SDS011;35382;51.484;11.476;2023-05-07T07:40:17;22.95;;;17.05;;
49488;SDS011;35382;51.484;11.476;2023-05-07T07:42:00;21.83;;;17.00;;
49488;SDS011;35382;51.484;11.476;2023-05-07T07:43:43;22.95;;;17.83;;
49488;SDS011;35382;51.484;11.476;2023-05-07T07:45:24;22.33;;;18.10;;
49488;SDS011;35382;51.484;11.476;2023-05-07T07:47:06;22.88;;;17.63;;
49488;SDS011;35382;51.484;11.476;2023-05-07T07:48:47;23.35;;;17.58;;
49488;SDS011;35382;51.484;11.476;2023-05-07T07:50:29;21.58;;;16.25;;
49488;SDS011;35382;51.484;11.476;2023-05-07T07:52:09;23.00;;;17.10;;
49488;SDS011;35382;51.484;11.476;2023-05-07T07:53:51;24.30;;;17.88;;
49488;SDS011;35382;51.484;11.476;2023-05-07T07:55:34;21.88;;;17.35;;
49488;SDS011;35382;51.484;11.476;2023-05-07T07:57:18;21.95;;;17.10;;
49488;SDS011;35382;51.484;11.476;2023-05-07T07:59:01;36.80;;;22.77;;
49488;SDS011;35382;51.484;11.476;2023-05-07T08:00:42;21.67;;;16.27;;
49488;SDS011;35382;51.484;11.476;2023-05-07T08:02:23;21.05;;;15.57;;
49488;SDS011;35382;51.484;11.476;2023-05-07T08:04:06;20.98;;;15.80;;
49488;SDS011;35382;51.484;11.476;2023-05-07T08:05:51;24.77;;;16.95;;
49488;SDS011;35382;51.484;11.476;2023-05-07T08:07:35;19.73;;;15.23;;
49488;SDS011;35382;51.484;11.476;2023-05-07T08:09:16;24.17;;;17.65;;
49488;SDS011;35382;51.484;11.476;2023-05-07T08:11:03;20.17;;;16.00;;
49488;SDS011;35382;51.484;11.476;2023-05-07T08:12:49;18.45;;;13.88;;
49488;SDS011;35382;51.484;11.476;2023-05-07T08:14:31;18.63;;;14.32;;
49488;SDS011;35382;51.484;11.476;2023-05-07T08:16:12;18.90;;;13.32;;
49488;SDS011;35382;51.484;11.476;2023-05-07T08:17:53;17.63;;;13.30;;
49488;SDS011;35382;51.484;11.476;2023-05-07T08:19:34;17.00;;;12.50;;
49488;SDS011;35382;51.484;11.476;2023-05-07T08:21:17;17.25;;;13.18;;
49488;SDS011;35382;51.484;11.476;2023-05-07T08:22:58;17.13;;;13.20;;
49488;SDS011;35382;51.484;11.476;2023-05-07T08:24:41;17.35;;;13.68;;
49488;SDS011;35382;51.484;11.476;2023-05-07T08:26:22;16.77;;;12.48;;
49488;SDS011;35382;51.484;11.476;2023-05-07T08:28:03;16.00;;;11.95;;
49488;SDS011;35382;51.484;11.476;2023-05-07T08:29:47;17.52;;;13.07;;
49488;SDS011;35382;51.484;11.476;2023-05-07T08:31:31;17.00;;;13.07;;
49488;SDS011;35382;51.484;11.476;2023-05-07T08:33:12;16.67;;;12.10;;
49488;SDS011;35382;51.484;11.476;2023-05-07T08:34:53;15.77;;;12.55;;
49488;SDS011;35382;51.484;11.476;2023-05-07T08:36:34;14.75;;;11.80;;
49488;SDS011;35382;51.484;11.476;2023-05-07T08:38:15;17.02;;;12.60;;
49488;SDS011;35382;51.484;11.476;2023-05-07T08:39:56;14.77;;;11.93;;
49488;SDS011;35382;51.484;11.476;2023-05-07T08:41:43;16.55;;;12.23;;
49488;SDS011;35382;51.484;11.476;2023-05-07T08:43:26;15.23;;;11.25;;
49488;SDS011;35382;51.484;11.476;2023-05-07T08:45:10;16.38;;;11.88;;
49488;SDS011;35382;51.484;11.476;2023-05-07T08:46:54;18.70;;;12.50;;
49488;SDS011;35382;51.484;11.476;2023-05-07T08:48:38;17.30;;;12.55;;
49488;SDS011;35382;51.484;11.476;2023-05-07T08:50:24;14.88;;;11.65;;
49488;SDS011;35382;51.484;11.476;2023-05-07T08:52:06;17.20;;;13.35;;
49488;SDS011;35382;51.484;11.476;2023-05-07T08:53:52;17.38;;;13.13;;
49488;SDS011;35382;51.484;11.476;2023-05-07T08:55:38;15.32;;;11.93;;
49488;SDS011;35382;51.484;11.476;2023-05-07T08:57:20;16.08;;;12.77;;
49488;SDS011;35382;51.484;11.476;2023-05-07T08:59:02;17.02;;;12.63;;
49488;SDS011;35382;51.484;11.476;2023-05-07T09:00:45;17.15;;;12.65;;
49488;SDS011;35382;51.484;11.476;2023-05-07T09:02:27;17.77;;;12.60;;
49488;SDS011;35382;51.484;11.476;2023-05-07T09:04:09;17.17;;;12.40;;
49488;SDS011;35382;51.484;11.476;2023-05-07T09:05:51;17.55;;;13.02;;
49488;SDS011;35382;51.484;11.476;2023-05-07T09:07:34;17.92;;;12.73;;
49488;SDS011;35382;51.484;11.476;2023-05-07T09:09:16;16.35;;;12.90;;
49488;SDS011;35382;51.484;11.476;2023-05-07T09:10:59;15.77;;;12.50;;
49488;SDS011;35382;51.484;11.476;2023-05-07T09:12:40;15.80;;;12.98;;
49488;SDS011;35382;51.484;11.476;2023-05-07T09:14:24;17.33;;;13.40;;
49488;SDS011;35382;51.484;11.476;2023-05-07T09:16:11;18.58;;;14.68;;
49488;SDS011;35382;51.484;11.476;2023-05-07T09:17:54;18.88;;;14.25;;
49488;SDS011;35382;51.484;11.476;2023-05-07T09:19:45;21.25;;;15.60;;
49488;SDS011;35382;51.484;11.476;2023-05-07T09:21:29;21.63;;;16.88;;
49488;SDS011;35382;51.484;11.476;2023-05-07T09:23:13;19.58;;;15.60;;
49488;SDS011;35382;51.484;11.476;2023-05-07T09:24:54;22.73;;;18.35;;
49488;SDS011;35382;51.484;11.476;2023-05-07T09:26:39;20.33;;;18.08;;
49488;SDS011;35382;51.484;11.476;2023-05-07T09:28:21;19.23;;;14.38;;
49488;SDS011;35382;51.484;11.476;2023-05-07T09:30:03;20.00;;;15.55;;
49488;SDS011;35382;51.484;11.476;2023-05-07T09:31:46;17.98;;;15.40;;
49488;SDS011;35382;51.484;11.476;2023-05-07T09:33:29;17.15;;;13.93;;
49488;SDS011;35382;51.484;11.476;2023-05-07T09:35:15;19.05;;;15.30;;
49488;SDS011;35382;51.484;11.476;2023-05-07T09:37:06;16.65;;;13.63;;
49488;SDS011;35382;51.484;11.476;2023-05-07T09:38:48;14.18;;;11.60;;
49488;SDS011;35382;51.484;11.476;2023-05-07T09:40:31;15.73;;;12.80;;
49488;SDS011;35382;51.484;11.476;2023-05-07T09:42:22;16.38;;;13.15;;
49488;SDS011;35382;51.484;11.476;2023-05-07T09:44:04;14.60;;;11.88;;
49488;SDS011;35382;51.484;11.476;2023-05-07T09:45:52;15.88;;;12.30;;
49488;SDS011;35382;51.484;11.476;2023-05-07T09:47:34;15.85;;;12.65;;
49488;SDS011;35382;51.484;11.476;2023-05-07T09:49:23;17.40;;;12.57;;
49488;SDS011;35382;51.484;11.476;2023-05-07T09:51:41;14.98;;;11.50;;
49488;SDS011;35382;51.484;11.476;2023-05-07T09:53:22;13.57;;;11.35;;